HomeShort term forecast

Short term forecast

Graphical weather forecast for the next 48 hours for Montreal:
Short term forecast
This weather forecast is automatically refreshed every 3 hours.

Hourly Experimental Forecast for the next 48 hours

Overall summary: Mostly cloudy starting this evening.

 Date & Hour   Temp   Feel   Baro   Hum   Speed & Bearing   Wind Gust   Precip.%   Precip.   Visibility   Cloud cover   Conditions 
 22/06/2018 - 17:00  24.9°C  24.9°C  1014.8 hPa  31%  3.9 km/h   9.2 km/h  0%  --  16.1km  1%  Clear 
 22/06/2018 - 18:00  25.3°C  25.3°C  1014.2 hPa  33%  3.9 km/h   9.2 km/h  0%  --  16.1km  31%  Partly Cloudy 
 22/06/2018 - 19:00  25.4°C  25.4°C  1014.1 hPa  36%  4.9 km/h   10.5 km/h  0%  --  16.1km  49%  Partly Cloudy 
 22/06/2018 - 20:00  24.4°C  24.4°C  1014.1 hPa  40%  5.4 km/h   7.9 km/h  0%  --  16.1km  62%  Mostly Cloudy 
 22/06/2018 - 21:00  22.8°C  22.8°C  1014.1 hPa  44%  5.8 km/h   9.8 km/h  0%  --  16.1km  64%  Mostly Cloudy 
 22/06/2018 - 22:00  21.0°C  21.0°C  1014.3 hPa  47%  5.7 km/h   9.1 km/h  0%  --  16.1km  76%  Mostly Cloudy 
 22/06/2018 - 23:00  19.4°C  19.4°C  1014.3 hPa  51%  5.5 km/h   9.5 km/h  0%  --  16.1km  87%  Mostly Cloudy 
 23/06/2018 - 00:00  18.2°C  18.2°C  1014.3 hPa  54%  5.0 km/h   10.6 km/h  0%  --  16.1km  83%  Mostly Cloudy 
 23/06/2018 - 01:00  17.4°C  17.4°C  1014.1 hPa  58%  4.7 km/h   8.6 km/h  0%  --  16.1km  76%  Mostly Cloudy 
 23/06/2018 - 02:00  16.7°C  16.7°C  1013.9 hPa  66%  4.6 km/h   10.0 km/h  0%  --  16.1km  80%  Mostly Cloudy 
 23/06/2018 - 03:00  16.0°C  16.0°C  1013.6 hPa  71%  4.4 km/h   8.9 km/h  0%  --  16.1km  78%  Mostly Cloudy 
 23/06/2018 - 04:00  15.6°C  15.6°C  1013.4 hPa  75%  4.4 km/h   9.4 km/h  0%  --  16.1km  89%  Mostly Cloudy 
 23/06/2018 - 05:00  15.3°C  15.3°C  1013.3 hPa  78%  4.6 km/h   8.9 km/h  0%  --  16.1km  84%  Mostly Cloudy 
 23/06/2018 - 06:00  16.0°C  16.0°C  1013.1 hPa  76%  4.3 km/h   7.9 km/h  1%  0.02 mm/h  16.1km  86%  Mostly Cloudy 
 23/06/2018 - 07:00  16.9°C  16.9°C  1013.1 hPa  73%  4.6 km/h   5.7 km/h  0%  --  16.1km  96%  Overcast 
 23/06/2018 - 08:00  18.5°C  18.5°C  1012.9 hPa  68%  4.9 km/h   5.5 km/h  0%  --  16.1km  97%  Overcast 
 23/06/2018 - 09:00  20.1°C  20.1°C  1012.8 hPa  64%  5.7 km/h   6.2 km/h  0%  --  16.1km  97%  Overcast 
 23/06/2018 - 10:00  21.9°C  21.9°C  1012.6 hPa  60%  6.6 km/h   7.3 km/h  0%  --  16.1km  97%  Overcast 
 23/06/2018 - 11:00  23.2°C  23.2°C  1012.3 hPa  55%  8.2 km/h   9.3 km/h  2%  0.01 mm/h  16.1km  97%  Overcast 
 23/06/2018 - 12:00  24.4°C  24.4°C  1011.8 hPa  50%  10.4 km/h   12.6 km/h  1%  0.01 mm/h  16.1km  97%  Overcast 
 23/06/2018 - 13:00  25.3°C  25.3°C  1011.2 hPa  45%  13.0 km/h   16.6 km/h  0%  --  16.1km  97%  Overcast 
 23/06/2018 - 14:00  25.8°C  25.8°C  1010.6 hPa  41%  15.9 km/h   20.2 km/h  0%  --  16.1km  97%  Overcast 
 23/06/2018 - 15:00  25.0°C  25.0°C  1010.1 hPa  42%  17.5 km/h   23.1 km/h  2%  0.01 mm/h  16.1km  97%  Overcast 
 23/06/2018 - 16:00  23.2°C  23.2°C  1009.6 hPa  47%  16.1 km/h   25.5 km/h  8%  0.26 mm/h  16.1km  98%  Overcast 
 23/06/2018 - 17:00  21.9°C  21.9°C  1009.3 hPa  51%  15.0 km/h   26.5 km/h  4%  0.04 mm/h  16.1km  99%  Overcast 
 23/06/2018 - 18:00  20.6°C  20.6°C  1009.1 hPa  56%  14.2 km/h   25.7 km/h  12%  0.20 mm/h  16.1km  100%  Overcast 
 23/06/2018 - 19:00  19.7°C  19.7°C  1008.8 hPa  62%  11.9 km/h   23.7 km/h  15%  0.23 mm/h  16.1km  99%  Overcast 
 23/06/2018 - 20:00  18.4°C  18.4°C  1008.9 hPa  69%  11.8 km/h   22.0 km/h  29%  0.32 mm/h  16.1km  100%  Overcast 
 23/06/2018 - 21:00  17.1°C  17.1°C  1008.8 hPa  75%  11.6 km/h   21.5 km/h  39%  0.37 mm/h  16.1km  100%  Overcast 
 23/06/2018 - 22:00  16.3°C  16.3°C  1008.7 hPa  79%  11.7 km/h   21.4 km/h  45%  0.44 mm/h  16.1km  100%  Overcast 
 23/06/2018 - 23:00  15.8°C  15.8°C  1008.5 hPa  81%  11.6 km/h   20.9 km/h  32%  0.26 mm/h  16.1km  100%  Overcast 
 24/06/2018 - 00:00  15.2°C  15.2°C  1008.3 hPa  84%  10.8 km/h   19.4 km/h  13%  0.07 mm/h  16.1km  100%  Overcast 
 24/06/2018 - 01:00  14.8°C  14.8°C  1007.9 hPa  87%  9.7 km/h   17.2 km/h  22%  0.17 mm/h  16.1km  100%  Overcast 
 24/06/2018 - 02:00  14.5°C  14.5°C  1007.7 hPa  88%  8.7 km/h   15.2 km/h  14%  0.10 mm/h  16.1km  99%  Overcast 
 24/06/2018 - 03:00  14.0°C  14.0°C  1007.6 hPa  90%  7.8 km/h   13.7 km/h  0%  --  16.1km  93%  Mostly Cloudy 
 24/06/2018 - 04:00  13.7°C  13.7°C  1007.5 hPa  92%  7.2 km/h   12.4 km/h  4%  0.01 mm/h  16.1km  84%  Mostly Cloudy 
 24/06/2018 - 05:00  13.5°C  13.5°C  1007.6 hPa  92%  6.8 km/h   11.6 km/h  5%  0.04 mm/h  16.1km  78%  Mostly Cloudy 
 24/06/2018 - 06:00  13.9°C  13.9°C  1007.8 hPa  91%  6.3 km/h   11.7 km/h  0%  --  16.1km  76%  Mostly Cloudy 
 24/06/2018 - 07:00  14.9°C  14.9°C  1008.2 hPa  87%  6.7 km/h   12.3 km/h  0%  --  16.1km  75%  Mostly Cloudy 
 24/06/2018 - 08:00  15.9°C  15.9°C  1008.6 hPa  83%  6.7 km/h   12.4 km/h  0%  --  16.1km  75%  Mostly Cloudy 
 24/06/2018 - 09:00  17.2°C  17.2°C  1008.9 hPa  77%  6.2 km/h   11.1 km/h  0%  --  16.1km  72%  Mostly Cloudy 
 24/06/2018 - 10:00  19.0°C  19.0°C  1009.2 hPa  71%  6.3 km/h   9.2 km/h  0%  --  16.1km  69%  Mostly Cloudy 
 24/06/2018 - 11:00  20.3°C  20.3°C  1009.5 hPa  66%  7.3 km/h   8.3 km/h  2%  0.01 mm/h  16.1km  68%  Mostly Cloudy 
 24/06/2018 - 12:00  21.4°C  21.4°C  1009.7 hPa  63%  7.8 km/h   9.4 km/h  3%  0.03 mm/h  16.1km  73%  Mostly Cloudy 
 24/06/2018 - 13:00  22.4°C  22.4°C  1009.7 hPa  60%  8.4 km/h   11.5 km/h  6%  0.13 mm/h  16.1km  82%  Mostly Cloudy 
 24/06/2018 - 14:00  22.9°C  22.9°C  1009.8 hPa  59%  8.7 km/h   12.7 km/h  12%  0.24 mm/h  16.1km  89%  Mostly Cloudy 
 24/06/2018 - 15:00  22.4°C  22.4°C  1010.1 hPa  63%  8.9 km/h   12.0 km/h  13%  0.26 mm/h  16.1km  92%  Mostly Cloudy 
 24/06/2018 - 16:00  21.1°C  21.1°C  1010.4 hPa  70%  9.8 km/h   10.4 km/h  15%  0.28 mm/h  16.1km  93%  Mostly Cloudy 
Test

 

Past weather and reports

Past weatherFind in this section the past weather conditions, weather archive, graphics, reports and statistics.

Current conditions

Current weather condition for MontrealAll you need to know about the current weather conditions for Montreal. Weather data is updated every 10 minutes.

Weather forecast

Current Montreal weatherSince 2004, celinium.com website has provided accurate weather forecast for Montreal's island.